Time;durP1;ratioP1;P1;durP2;ratioP2;P2;SDS_P1;SDS_P2;PMS_P1;PMS_P2;Temp;Humidity;BMP_temperature;BMP_pressure;BME280_temperature;BME280_humidity;BME280_pressure;Samples;Min_cycle;Max_cycle;Signal;HPM_P1;HPM_P2
2024/04/16 00:00:01;;;;;;;1.03;0.43;;;8.50;99.90;;;;;;5470759;26;20233;-61
2024/04/16 00:02:27;;;;;;;0.90;0.30;;;8.70;99.90;;;;;;5468851;26;20705;-60
2024/04/16 00:04:58;;;;;;;0.93;0.30;;;8.70;99.90;;;;;;5471177;26;20238;-61
2024/04/16 00:07:24;;;;;;;1.17;0.40;;;8.70;99.90;;;;;;5475011;26;20302;-60
2024/04/16 00:09:52;;;;;;;1.63;0.70;;;8.70;99.90;;;;;;5473007;26;20233;-60
2024/04/16 00:12:18;;;;;;;1.97;0.43;;;8.70;99.90;;;;;;5468682;26;20234;-60
2024/04/16 00:14:46;;;;;;;0.97;0.43;;;8.70;99.90;;;;;;5483866;26;20784;-60
2024/04/16 00:17:12;;;;;;;0.30;0.10;;;8.70;99.90;;;;;;5499345;20;20279;-62
2024/04/16 00:19:40;;;;;;;0.83;0.30;;;8.60;99.90;;;;;;5489811;26;20237;-62
2024/04/16 00:22:08;;;;;;;0.90;0.30;;;8.60;99.90;;;;;;5489810;26;20232;-61
2024/04/16 00:24:37;;;;;;;1.00;0.50;;;8.60;99.90;;;;;;5488912;26;20232;-62
2024/04/16 00:27:03;;;;;;;2.50;0.40;;;8.70;99.90;;;;;;5489640;26;20229;-62
2024/04/16 00:29:31;;;;;;;1.17;0.53;;;8.70;99.90;;;;;;5474637;26;20603;-61
2024/04/16 00:31:57;;;;;;;1.27;0.40;;;8.70;99.90;;;;;;5471385;26;20244;-61
2024/04/16 00:34:26;;;;;;;1.83;0.63;;;8.60;99.90;;;;;;5468605;26;20326;-62
2024/04/16 00:36:52;;;;;;;2.60;0.63;;;8.60;99.90;;;;;;5470555;26;20271;-62
2024/04/16 00:39:23;;;;;;;4.27;0.80;;;8.60;99.90;;;;;;5474897;26;20283;-62
2024/04/16 00:41:48;;;;;;;2.63;0.67;;;8.60;99.90;;;;;;5473560;26;20229;-61
2024/04/16 00:44:17;;;;;;;2.33;0.60;;;8.60;99.90;;;;;;5468704;26;20273;-62
2024/04/16 00:46:43;;;;;;;1.17;0.50;;;8.60;99.90;;;;;;5468906;26;20242;-62
2024/04/16 00:49:12;;;;;;;2.23;0.60;;;8.60;99.90;;;;;;5474545;26;20817;-62
2024/04/16 00:51:39;;;;;;;3.77;0.87;;;8.60;99.90;;;;;;5474143;26;20761;-62
2024/04/16 00:54:09;;;;;;;2.87;0.70;;;8.60;99.90;;;;;;5469305;26;20753;-61
2024/04/16 00:56:40;;;;;;;1.20;0.50;;;8.60;99.90;;;;;;5468311;26;20646;-61
2024/04/16 00:59:08;;;;;;;2.57;0.50;;;8.70;99.90;;;;;;5473373;26;20248;-61
2024/04/16 01:01:36;;;;;;;1.57;0.80;;;8.80;99.90;;;;;;5474210;26;20229;-62
2024/04/16 01:04:05;;;;;;;3.53;0.60;;;8.70;99.90;;;;;;5469818;26;20233;-62
2024/04/16 01:06:32;;;;;;;2.37;0.60;;;8.80;99.90;;;;;;5468062;26;20260;-62
2024/04/16 01:09:00;;;;;;;3.70;0.80;;;8.70;99.90;;;;;;5471282;26;20237;-62
2024/04/16 01:11:26;;;;;;;2.27;0.67;;;8.60;99.90;;;;;;5473885;26;20261;-62
2024/04/16 01:13:58;;;;;;;0.87;0.57;;;8.60;99.90;;;;;;5472243;26;20275;-62
2024/04/16 01:16:23;;;;;;;1.03;0.37;;;8.50;99.90;;;;;;5467995;26;20230;-62
2024/04/16 01:18:52;;;;;;;1.73;0.80;;;8.50;99.90;;;;;;5468821;26;20284;-61
2024/04/16 01:21:18;;;;;;;1.20;0.50;;;8.50;99.90;;;;;;5473603;26;20236;-62
2024/04/16 01:23:49;;;;;;;1.93;0.50;;;8.50;99.90;;;;;;5473901;26;20282;-62
2024/04/16 01:26:14;;;;;;;1.97;0.60;;;8.60;99.90;;;;;;5467543;26;20264;-62
2024/04/16 01:28:43;;;;;;;2.70;0.63;;;8.50;99.90;;;;;;5467619;26;20237;-62
2024/04/16 01:31:09;;;;;;;1.73;0.70;;;8.50;99.90;;;;;;5473084;26;20228;-61
2024/04/16 01:33:37;;;;;;;2.63;0.97;;;8.50;99.90;;;;;;5474003;26;20625;-62
2024/04/16 01:36:04;;;;;;;2.37;0.60;;;8.50;99.90;;;;;;5469374;26;20229;-62
2024/04/16 01:38:32;;;;;;;2.70;0.90;;;8.60;99.90;;;;;;5467571;26;20747;-62
2024/04/16 01:41:01;;;;;;;3.80;0.80;;;8.60;99.90;;;;;;5470507;26;20719;-62
2024/04/16 01:43:30;;;;;;;2.40;0.53;;;8.60;99.90;;;;;;5473803;26;20368;-62
2024/04/16 01:45:55;;;;;;;4.23;0.90;;;8.60;99.90;;;;;;5470952;26;20237;-62
2024/04/16 01:48:24;;;;;;;1.43;0.80;;;8.60;99.90;;;;;;5467433;26;20572;-62
2024/04/16 01:50:50;;;;;;;2.40;0.90;;;8.60;99.90;;;;;;5467643;26;20234;-62
2024/04/16 01:53:19;;;;;;;4.37;0.73;;;8.60;99.90;;;;;;5473804;26;20263;-62
2024/04/16 01:55:45;;;;;;;2.13;0.87;;;8.60;99.90;;;;;;5473620;26;20229;-62
2024/04/16 01:58:16;;;;;;;1.43;0.70;;;8.60;99.90;;;;;;5467435;26;20293;-62
2024/04/16 02:00:42;;;;;;;3.13;0.80;;;8.60;99.90;;;;;;5466976;26;20269;-61
2024/04/16 02:03:10;;;;;;;3.80;0.90;;;8.70;99.90;;;;;;5472606;26;20233;-61
2024/04/16 02:05:37;;;;;;;4.13;0.80;;;8.70;99.90;;;;;;5473384;26;20264;-61
2024/04/16 02:08:05;;;;;;;1.53;0.80;;;8.70;99.90;;;;;;5469168;26;20524;-62
2024/04/16 02:10:31;;;;;;;3.30;0.87;;;8.80;99.90;;;;;;5466681;26;20229;-62
2024/04/16 02:12:59;;;;;;;2.43;0.80;;;8.90;99.90;;;;;;5469597;26;20230;-61
2024/04/16 02:15:28;;;;;;;2.00;1.00;;;8.80;99.90;;;;;;5473274;26;20593;-61
2024/04/16 02:17:56;;;;;;;3.90;1.20;;;8.90;99.90;;;;;;5470987;26;20276;-61
2024/04/16 02:20:22;;;;;;;4.93;1.13;;;8.80;99.90;;;;;;5466552;26;20350;-62
2024/04/16 02:22:50;;;;;;;4.33;0.93;;;8.80;99.90;;;;;;5466934;26;20241;-62
2024/04/16 02:25:16;;;;;;;2.20;0.80;;;8.70;99.90;;;;;;5473155;26;20240;-61
2024/04/16 02:27:44;;;;;;;2.57;0.97;;;8.60;99.90;;;;;;5473102;26;20237;-61
2024/04/16 02:30:10;;;;;;;3.13;1.00;;;8.60;99.90;;;;;;5466768;26;20233;-62
2024/04/16 02:32:41;;;;;;;3.53;1.00;;;8.70;99.90;;;;;;5466667;26;20280;-61
2024/04/16 02:35:06;;;;;;;2.93;0.90;;;8.80;99.90;;;;;;5471530;26;20619;-62
2024/04/16 02:37:35;;;;;;;3.27;1.00;;;8.90;99.90;;;;;;5472967;26;20280;-61
2024/04/16 02:40:01;;;;;;;2.77;1.17;;;8.90;99.90;;;;;;5469089;26;20229;-61
2024/04/16 02:42:29;;;;;;;1.93;0.83;;;8.90;99.90;;;;;;5466573;26;20234;-61
2024/04/16 02:44:55;;;;;;;1.43;0.77;;;8.90;99.90;;;;;;5468248;26;20233;-62
2024/04/16 02:47:23;;;;;;;2.20;0.90;;;8.80;99.90;;;;;;5471857;26;20731;-62
2024/04/16 02:49:52;;;;;;;4.77;1.27;;;8.70;99.90;;;;;;5471742;26;20664;-61
2024/04/16 02:52:20;;;;;;;6.27;4.27;;;8.70;99.90;;;;;;5466342;26;20503;-63
2024/04/16 02:54:48;;;;;;;4.73;3.97;;;8.70;99.90;;;;;;5466426;26;20229;-62
2024/04/16 02:57:16;;;;;;;2.27;1.03;;;8.70;99.90;;;;;;5466325;26;20233;-61
2024/04/16 02:59:46;;;;;;;1.80;0.87;;;8.70;99.90;;;;;;5466331;26;20272;-61
2024/04/16 03:02:14;;;;;;;2.80;0.93;;;8.70;99.90;;;;;;5472454;26;20302;-61
2024/04/16 03:04:40;;;;;;;2.23;0.87;;;8.80;99.90;;;;;;5472383;26;20282;-61
2024/04/16 03:07:11;;;;;;;3.57;1.07;;;8.80;99.90;;;;;;5467836;26;20233;-61
2024/04/16 03:09:36;;;;;;;4.40;0.97;;;8.80;99.90;;;;;;5466194;26;20334;-61
2024/04/16 03:12:05;;;;;;;7.80;3.10;;;8.80;99.90;;;;;;5469737;26;20614;-63
2024/04/16 03:14:31;;;;;;;18.33;14.03;;;8.80;99.90;;;;;;5472349;26;20275;-61
2024/04/16 03:16:59;;;;;;;3.50;1.10;;;8.80;99.90;;;;;;5470093;26;20232;-61
2024/04/16 03:19:25;;;;;;;6.17;1.50;;;8.80;99.90;;;;;;5465595;26;20229;-62
2024/04/16 03:21:53;;;;;;;4.63;1.13;;;8.60;99.90;;;;;;5466429;26;20265;-62
2024/04/16 03:24:21;;;;;;;5.40;1.67;;;8.70;99.90;;;;;;5472218;26;20630;-61
2024/04/16 03:26:50;;;;;;;3.67;1.00;;;8.60;99.90;;;;;;5471813;26;20233;-62
2024/04/16 03:29:15;;;;;;;8.87;5.00;;;8.60;99.90;;;;;;5465748;26;20285;-62
2024/04/16 03:31:44;;;;;;;7.50;1.33;;;8.50;99.90;;;;;;5465688;26;20230;-62
2024/04/16 03:34:09;;;;;;;3.87;1.30;;;8.40;99.90;;;;;;5470813;26;20241;-62
2024/04/16 03:36:38;;;;;;;3.00;0.87;;;8.40;99.90;;;;;;5471848;26;20280;-61
2024/04/16 03:39:06;;;;;;;3.67;1.10;;;8.50;99.90;;;;;;5468113;26;20233;-62
2024/04/16 03:41:37;;;;;;;3.13;1.10;;;8.50;99.90;;;;;;5465234;26;20226;-62
2024/04/16 03:44:03;;;;;;;3.33;0.97;;;8.50;99.90;;;;;;5469067;26;20280;-62
2024/04/16 03:46:31;;;;;;;4.63;1.50;;;8.40;99.90;;;;;;5471619;26;20237;-62
2024/04/16 03:48:57;;;;;;;2.90;1.00;;;8.50;99.90;;;;;;5469557;26;20768;-61
2024/04/16 03:51:25;;;;;;;4.57;1.20;;;8.40;99.90;;;;;;5464899;26;20234;-62
2024/04/16 03:53:51;;;;;;;3.73;1.10;;;8.30;99.90;;;;;;5465455;26;20777;-62
2024/04/16 03:56:19;;;;;;;4.23;1.53;;;8.30;99.90;;;;;;5471669;26;20233;-62
2024/04/16 03:59:04;;;;;;;3.30;1.20;;;8.30;99.90;;;;;;5472260;26;20241;-62
2024/04/16 04:01:33;;;;;;;4.73;1.00;;;8.30;99.90;;;;;;5468679;26;20241;-62
2024/04/16 04:03:59;;;;;;;3.40;1.13;;;8.30;99.90;;;;;;5471264;26;20230;-60
2024/04/16 04:06:27;;;;;;;3.20;1.40;;;8.30;99.90;;;;;;5475453;26;20276;-61
2024/04/16 04:08:53;;;;;;;4.50;1.40;;;8.40;99.90;;;;;;5474230;26;20236;-61
2024/04/16 04:11:21;;;;;;;3.60;1.13;;;8.50;99.90;;;;;;5468397;26;20848;-62
2024/04/16 04:13:49;;;;;;;4.73;1.37;;;8.60;99.90;;;;;;5469060;26;20293;-62
2024/04/16 04:16:18;;;;;;;5.80;1.13;;;8.50;99.90;;;;;;5475224;26;20271;-61
2024/04/16 04:18:44;;;;;;;3.17;1.37;;;8.60;99.90;;;;;;5474574;26;20264;-62
2024/04/16 04:21:13;;;;;;;3.60;1.13;;;8.60;99.90;;;;;;5469331;26;20279;-62
2024/04/16 04:23:39;;;;;;;3.53;1.60;;;8.60;99.90;;;;;;5468711;26;20281;-62
2024/04/16 04:26:07;;;;;;;5.23;1.40;;;8.70;99.90;;;;;;5472255;26;20723;-62
2024/04/16 04:28:33;;;;;;;5.03;1.67;;;8.70;99.90;;;;;;5474858;26;20232;-62
2024/04/16 04:31:18;;;;;;;4.00;1.67;;;8.70;99.90;;;;;;5472360;26;20232;-61
2024/04/16 04:33:44;;;;;;;6.20;1.53;;;8.60;99.90;;;;;;5468572;26;20226;-63
2024/04/16 04:36:13;;;;;;;6.00;1.60;;;8.40;99.90;;;;;;5473091;26;20269;-61
2024/04/16 04:38:39;;;;;;;6.07;1.60;;;8.30;99.90;;;;;;5474708;26;20237;-62
2024/04/16 04:41:07;;;;;;;3.80;1.50;;;8.20;99.90;;;;;;5470929;26;20233;-63
2024/04/16 04:43:33;;;;;;;3.13;1.50;;;8.10;99.90;;;;;;5468477;26;20272;-62
2024/04/16 04:46:04;;;;;;;6.27;1.57;;;7.90;99.90;;;;;;5470196;26;20581;-62
2024/04/16 04:48:29;;;;;;;5.83;1.60;;;8.00;99.90;;;;;;5474380;26;20233;-62
2024/04/16 04:50:58;;;;;;;3.70;1.40;;;8.10;99.90;;;;;;5473133;26;20267;-62
2024/04/16 04:53:23;;;;;;;7.17;2.00;;;8.10;99.90;;;;;;5468343;26;20233;-63
2024/04/16 04:55:52;;;;;;;3.67;2.00;;;8.20;99.90;;;;;;5468312;26;20272;-62
2024/04/16 04:58:17;;;;;;;9.20;1.90;;;8.40;99.90;;;;;;5468090;26;20234;-62
2024/04/16 05:00:46;;;;;;;6.07;2.00;;;8.60;99.90;;;;;;5467723;26;20276;-62
2024/04/16 05:03:14;;;;;;;9.40;1.87;;;8.70;99.90;;;;;;5472887;26;20236;-62
2024/04/16 05:05:46;;;;;;;5.63;1.90;;;8.80;99.90;;;;;;5475167;26;20233;-62
2024/04/16 05:08:12;;;;;;;4.73;1.60;;;8.90;99.90;;;;;;5469305;26;20326;-62
2024/04/16 05:10:41;;;;;;;9.10;2.00;;;9.00;99.90;;;;;;5467020;26;20230;-61
2024/04/16 05:13:06;;;;;;;7.47;1.90;;;9.10;99.90;;;;;;5471295;26;20704;-61
2024/04/16 05:15:34;;;;;;;4.03;1.67;;;9.00;99.90;;;;;;5474257;26;20267;-61
2024/04/16 05:18:02;;;;;;;8.30;1.80;;;9.10;99.90;;;;;;5471568;26;20237;-61
2024/04/16 05:20:33;;;;;;;5.17;2.07;;;9.10;99.90;;;;;;5467324;26;20627;-62
2024/04/16 05:22:59;;;;;;;4.97;1.60;;;9.20;99.90;;;;;;5469374;26;20237;-61
2024/04/16 05:25:28;;;;;;;7.90;1.57;;;9.20;99.90;;;;;;5473810;26;20232;-61
2024/04/16 05:27:53;;;;;;;4.80;2.03;;;9.20;99.90;;;;;;5473792;26;20279;-62
2024/04/16 05:30:22;;;;;;;3.03;1.40;;;9.20;99.90;;;;;;5467396;26;20294;-61
2024/04/16 05:32:49;;;;;;;3.47;1.73;;;9.20;99.90;;;;;;5467728;26;20571;-61
2024/04/16 05:35:17;;;;;;;3.13;1.73;;;9.30;99.90;;;;;;5473006;26;20316;-62
2024/04/16 05:37:46;;;;;;;4.07;1.17;;;9.30;99.90;;;;;;5473698;26;20286;-61
2024/04/16 05:40:14;;;;;;;2.80;1.47;;;9.20;99.90;;;;;;5468013;26;20612;-61
2024/04/16 05:42:40;;;;;;;3.50;1.50;;;9.10;99.90;;;;;;5467747;26;20274;-61
2024/04/16 05:45:09;;;;;;;3.07;1.20;;;9.10;99.90;;;;;;5470659;26;20233;-62
2024/04/16 05:47:35;;;;;;;2.43;1.00;;;9.10;99.90;;;;;;5473522;26;20256;-61
2024/04/16 05:50:03;;;;;;;5.03;2.17;;;9.20;99.90;;;;;;5471494;26;20686;-60
2024/04/16 05:52:29;;;;;;;5.77;2.20;;;9.20;99.90;;;;;;5467023;26;20282;-60
2024/04/16 05:54:59;;;;;;;3.43;1.17;;;9.30;99.90;;;;;;5467265;26;20334;-61
2024/04/16 05:57:25;;;;;;;3.17;1.30;;;9.30;99.90;;;;;;5467121;26;20233;-61
2024/04/16 05:59:54;;;;;;;3.43;1.63;;;9.40;99.90;;;;;;5466927;26;20276;-61
2024/04/16 06:02:19;;;;;;;6.63;1.30;;;9.50;99.90;;;;;;5467013;26;20230;-61
2024/04/16 06:04:48;;;;;;;2.53;1.37;;;9.50;99.90;;;;;;5467091;26;20233;-61
2024/04/16 06:07:14;;;;;;;4.17;1.23;;;9.50;99.90;;;;;;5472124;26;20725;-60
2024/04/16 06:09:43;;;;;;;4.27;1.67;;;9.60;99.90;;;;;;5472972;26;20225;-60
2024/04/16 06:12:11;;;;;;;1.93;0.93;;;9.60;99.90;;;;;;5469387;26;20296;-61
2024/04/16 06:14:39;;;;;;;5.87;1.20;;;9.70;99.90;;;;;;5466933;26;20754;-60
2024/04/16 06:17:05;;;;;;;2.87;0.97;;;9.70;99.90;;;;;;5469234;26;20618;-60
2024/04/16 06:19:33;;;;;;;3.30;1.10;;;9.80;99.90;;;;;;5472969;26;20345;-61
2024/04/16 06:21:59;;;;;;;2.23;1.03;;;9.70;99.90;;;;;;5469744;26;20224;-61
2024/04/16 06:24:27;;;;;;;3.63;1.40;;;9.80;99.90;;;;;;5466651;26;20726;-60
2024/04/16 06:26:53;;;;;;;9.30;1.30;;;9.90;99.90;;;;;;5466504;26;20241;-60
2024/04/16 06:29:24;;;;;;;6.13;1.50;;;10.10;99.90;;;;;;5466290;26;20315;-60
2024/04/16 06:31:50;;;;;;;3.13;1.43;;;10.20;99.90;;;;;;5466483;26;20264;-61
2024/04/16 06:34:18;;;;;;;3.27;1.20;;;10.20;99.90;;;;;;5471777;26;20702;-60
2024/04/16 06:36:44;;;;;;;4.07;0.97;;;10.30;99.90;;;;;;5472910;26;20344;-60
2024/04/16 06:39:12;;;;;;;6.77;1.80;;;10.50;99.90;;;;;;5468759;26;20244;-60
2024/04/16 06:41:38;;;;;;;4.57;1.30;;;10.70;99.90;;;;;;5466182;26;20264;-60
2024/04/16 06:44:06;;;;;;;4.57;1.53;;;10.80;99.90;;;;;;5468823;26;20571;-60
2024/04/16 06:46:35;;;;;;;4.10;1.23;;;10.70;99.90;;;;;;5472795;26;20262;-61
2024/04/16 06:49:03;;;;;;;4.73;1.30;;;10.70;99.90;;;;;;5470811;26;20287;-60
2024/04/16 06:51:30;;;;;;;4.70;1.40;;;10.70;99.90;;;;;;5465899;26;20272;-60
2024/04/16 06:53:58;;;;;;;2.50;1.67;;;10.80;99.90;;;;;;5466648;26;20329;-60
2024/04/16 06:56:24;;;;;;;3.33;1.60;;;10.90;99.90;;;;;;5472426;26;20725;-60
2024/04/16 06:58:52;;;;;;;5.90;2.90;;;11.10;99.90;;;;;;5472231;26;20236;-60
2024/04/16 07:01:18;;;;;;;6.53;1.60;;;11.30;99.90;;;;;;5466260;26;20483;-60
2024/04/16 07:03:49;;;;;;;7.73;1.40;;;11.60;99.90;;;;;;5466394;26;20280;-60
2024/04/16 07:06:15;;;;;;;6.33;1.67;;;11.90;99.90;;;;;;5471117;26;20241;-60
2024/04/16 07:08:43;;;;;;;5.70;1.50;;;12.00;99.90;;;;;;5472700;26;20295;-59
2024/04/16 07:11:09;;;;;;;3.93;1.40;;;12.10;99.90;;;;;;5468480;26;20229;-60
2024/04/16 07:13:43;;;;;;;4.23;1.43;;;12.30;99.90;;;;;;5466032;26;20237;-60
2024/04/16 07:16:12;;;;;;;4.93;1.67;;;12.60;99.90;;;;;;5469957;26;20684;-60
2024/04/16 07:18:38;;;;;;;5.37;1.40;;;12.80;99.90;;;;;;5472089;26;20275;-60
2024/04/16 07:21:08;;;;;;;6.30;1.33;;;13.10;99.90;;;;;;5469548;26;20237;-59
2024/04/16 07:23:34;;;;;;;5.53;1.47;;;13.50;99.90;;;;;;5465633;26;20272;-59
2024/04/16 07:26:02;;;;;;;4.00;1.60;;;14.00;99.90;;;;;;5466293;26;20672;-59
2024/04/16 07:28:28;;;;;;;5.13;1.70;;;14.50;99.90;;;;;;5471641;26;20280;-59
2024/04/16 07:30:56;;;;;;;3.77;1.57;;;14.90;99.80;;;;;;5471490;26;20577;-59
2024/04/16 07:33:23;;;;;;;3.67;1.60;;;15.10;99.20;;;;;;5467342;26;20226;-59
2024/04/16 07:35:52;;;;;;;5.80;1.42;;;16.00;97.80;;;;;;5469265;26;20245;-59
2024/04/16 07:38:21;;;;;;;4.55;1.38;;;17.10;96.10;;;;;;5474973;26;20247;-59
2024/04/16 07:40:56;;;;;;;6.90;1.92;;;17.60;95.00;;;;;;5475018;26;20233;-60
2024/04/16 07:43:23;;;;;;;1.85;0.98;;;18.30;93.90;;;;;;5469195;26;20263;-59
2024/04/16 07:45:51;;;;;;;6.05;1.73;;;18.60;89.40;;;;;;5468811;26;20234;-60
2024/04/16 07:48:17;;;;;;;3.40;0.98;;;18.50;87.00;;;;;;5474139;26;20578;-59
2024/04/16 07:50:48;;;;;;;5.40;1.10;;;18.30;84.10;;;;;;5474763;26;20283;-59
2024/04/16 07:53:14;;;;;;;3.38;1.10;;;17.60;84.00;;;;;;5470610;26;20328;-59
2024/04/16 07:55:45;;;;;;;4.95;1.40;;;17.00;83.90;;;;;;5468799;26;20233;-60
2024/04/16 07:58:11;;;;;;;4.32;1.00;;;16.50;82.90;;;;;;5472084;26;20230;-59
2024/04/16 08:00:40;;;;;;;3.58;1.08;;;16.90;80.40;;;;;;5474104;26;20232;-60
2024/04/16 08:03:07;;;;;;;3.70;0.90;;;18.00;78.20;;;;;;5472102;26;20309;-62
2024/04/16 08:05:35;;;;;;;5.60;1.20;;;19.40;75.20;;;;;;5468333;26;20238;-60
2024/04/16 08:08:01;;;;;;;2.85;1.25;;;19.80;72.40;;;;;;5469030;26;20234;-59
2024/04/16 08:10:29;;;;;;;3.33;1.23;;;19.60;71.90;;;;;;5474011;26;20302;-59
2024/04/16 08:12:58;;;;;;;3.13;1.00;;;19.90;68.50;;;;;;5474289;26;20229;-59
2024/04/16 08:15:26;;;;;;;9.13;1.27;;;20.40;66.80;;;;;;5468085;26;20237;-59
2024/04/16 08:17:52;;;;;;;3.22;1.17;;;20.50;65.10;;;;;;5467480;26;20234;-60
2024/04/16 08:20:20;;;;;;;4.53;1.40;;;20.00;66.00;;;;;;5472656;26;20578;-59
2024/04/16 08:22:46;;;;;;;6.45;1.80;;;18.90;66.50;;;;;;5474552;26;20233;-59
2024/04/16 08:25:14;;;;;;;4.68;0.93;;;17.80;69.60;;;;;;5471307;26;20233;-59
2024/04/16 08:27:40;;;;;;;2.45;1.00;;;17.10;71.70;;;;;;5468111;26;20287;-59
2024/04/16 08:30:13;;;;;;;5.10;1.53;;;16.50;72.80;;;;;;5469656;26;20704;-59
2024/04/16 08:32:39;;;;;;;5.97;1.30;;;15.90;74.90;;;;;;5474162;26;20570;-59
2024/04/16 08:35:07;;;;;;;4.40;1.00;;;15.50;78.10;;;;;;5472565;26;20332;-59
2024/04/16 08:37:33;;;;;;;4.63;1.37;;;15.30;78.20;;;;;;5467934;26;20777;-59
2024/04/16 08:40:01;;;;;;;5.40;1.90;;;15.10;78.80;;;;;;5467270;26;20234;-59
2024/04/16 08:42:27;;;;;;;5.20;1.40;;;15.00;79.50;;;;;;5474463;26;20288;-59
2024/04/16 08:44:56;;;;;;;21.23;2.43;;;14.90;80.50;;;;;;5473435;26;20333;-59
2024/04/16 08:47:25;;;;;;;2.93;1.30;;;14.80;81.20;;;;;;5467903;26;20329;-59
2024/04/16 08:49:54;;;;;;;4.00;1.10;;;14.50;81.70;;;;;;5467942;26;20269;-58
2024/04/16 08:52:21;;;;;;;3.37;0.90;;;14.20;82.20;;;;;;5473525;26;20615;-58
2024/04/16 08:54:52;;;;;;;13.53;1.60;;;13.90;83.10;;;;;;5474267;26;20236;-60
2024/04/16 08:57:19;;;;;;;3.83;1.23;;;13.80;83.30;;;;;;5469145;26;20279;-60
2024/04/16 08:59:47;;;;;;;4.43;1.10;;;13.50;83.50;;;;;;5467381;26;20310;-60
2024/04/16 09:02:13;;;;;;;6.90;1.10;;;13.30;84.70;;;;;;5471233;26;20225;-60
2024/04/16 09:04:47;;;;;;;4.43;1.10;;;13.30;84.10;;;;;;5474075;26;20232;-60
2024/04/16 09:07:13;;;;;;;5.63;1.50;;;13.40;84.20;;;;;;5470411;26;20224;-60
2024/04/16 09:09:42;;;;;;;7.33;1.30;;;13.40;83.30;;;;;;5467285;26;20229;-60
2024/04/16 09:12:08;;;;;;;4.63;2.53;;;13.40;84.40;;;;;;5469768;26;20226;-60
2024/04/16 09:14:36;;;;;;;1.37;0.67;;;13.50;85.30;;;;;;5474109;26;20814;-60
2024/04/16 09:17:02;;;;;;;2.00;0.93;;;13.70;85.50;;;;;;5472606;26;20228;-60
2024/04/16 09:19:30;;;;;;;3.40;0.63;;;13.90;86.00;;;;;;5467305;26;20234;-60
2024/04/16 09:22:00;;;;;;;2.90;1.23;;;14.30;86.10;;;;;;5467552;26;20707;-60
2024/04/16 09:24:29;;;;;;;6.60;1.10;;;14.70;83.70;;;;;;5468060;26;20573;-59
2024/04/16 09:26:59;;;;;;;3.77;1.23;;;15.00;82.70;;;;;;5467310;26;20233;-61
2024/04/16 09:29:27;;;;;;;5.47;1.20;;;14.90;83.20;;;;;;5467709;26;20242;-59
2024/04/16 09:31:57;;;;;;;5.17;1.10;;;14.70;82.40;;;;;;5467805;26;20778;-59
2024/04/16 09:34:26;;;;;;;4.93;0.97;;;14.30;82.40;;;;;;5473266;26;20232;-60
2024/04/16 09:36:52;;;;;;;3.47;1.13;;;14.10;84.10;;;;;;5475849;26;20271;-59
2024/04/16 09:39:24;;;;;;;3.00;0.80;;;14.00;84.50;;;;;;5471678;26;20238;-59
2024/04/16 09:41:52;;;;;;;5.07;1.10;;;13.70;84.30;;;;;;5472993;26;20229;-60
2024/04/16 09:44:21;;;;;;;3.23;1.03;;;13.50;84.70;;;;;;5468960;26;20228;-60
2024/04/16 09:46:47;;;;;;;6.67;1.33;;;13.50;85.50;;;;;;5467279;26;20277;-59
2024/04/16 09:49:17;;;;;;;3.40;1.30;;;13.50;85.60;;;;;;5470284;26;20751;-59
2024/04/16 09:51:45;;;;;;;4.83;1.00;;;13.70;85.50;;;;;;5472722;26;20271;-59
2024/04/16 09:54:16;;;;;;;4.63;1.00;;;14.00;85.70;;;;;;5470487;26;20228;-59
2024/04/16 09:56:47;;;;;;;3.30;1.73;;;14.10;84.10;;;;;;5465374;26;20610;-59
2024/04/16 09:59:17;;;;;;;3.27;0.90;;;14.20;84.50;;;;;;5470048;26;20716;-59
2024/04/16 10:01:43;;;;;;;4.17;0.90;;;14.20;84.20;;;;;;5472782;26;20264;-59
2024/04/16 10:04:13;;;;;;;5.73;1.03;;;14.10;85.70;;;;;;5470639;26;20233;-59
2024/04/16 10:06:40;;;;;;;3.33;1.00;;;14.10;85.70;;;;;;5466699;26;20727;-59
2024/04/16 10:09:09;;;;;;;3.03;1.07;;;13.90;86.30;;;;;;5466793;26;20232;-59
2024/04/16 10:11:35;;;;;;;2.37;0.60;;;13.80;87.70;;;;;;5466184;26;20273;-61
2024/04/16 10:14:06;;;;;;;2.50;0.60;;;13.70;88.20;;;;;;5466742;26;20285;-60
2024/04/16 10:16:33;;;;;;;3.10;1.20;;;13.60;88.20;;;;;;5473526;26;21049;-60
2024/04/16 10:19:07;;;;;;;2.00;0.93;;;13.60;88.90;;;;;;5465170;26;20244;-60
2024/04/16 10:21:38;;;;;;;2.27;0.90;;;13.70;89.70;;;;;;5466404;26;20241;-60
2024/04/16 10:24:10;;;;;;;2.90;0.83;;;13.80;90.00;;;;;;5467175;26;20245;-60
2024/04/16 10:26:39;;;;;;;4.03;1.10;;;13.80;90.00;;;;;;5472362;26;20426;-60
2024/04/16 10:29:14;;;;;;;4.63;1.23;;;13.80;90.00;;;;;;5471521;26;20297;-60
2024/04/16 10:31:43;;;;;;;3.10;1.13;;;13.80;90.20;;;;;;5465726;26;20252;-60
2024/04/16 10:34:21;;;;;;;2.60;1.00;;;13.60;90.80;;;;;;5468160;26;20840;-60
2024/04/16 10:36:47;;;;;;;2.13;0.47;;;13.50;91.00;;;;;;5472745;26;20756;-62
2024/04/16 10:39:16;;;;;;;2.10;0.70;;;13.40;91.00;;;;;;5469624;26;20287;-60
2024/04/16 10:41:50;;;;;;;4.13;1.07;;;13.30;91.50;;;;;;5465703;26;20234;-61
2024/04/16 10:44:24;;;;;;;3.43;1.43;;;13.10;91.90;;;;;;5469449;26;20337;-61
2024/04/16 10:46:53;;;;;;;1.80;1.10;;;12.90;93.10;;;;;;5472325;26;20229;-60
2024/04/16 10:49:22;;;;;;;4.00;1.60;;;12.90;93.20;;;;;;5467857;26;20279;-61
2024/04/16 10:51:49;;;;;;;3.17;1.50;;;12.90;93.90;;;;;;5465736;26;20324;-61
2024/04/16 10:54:18;;;;;;;1.83;0.93;;;13.10;96.70;;;;;;5469041;26;20311;-61
2024/04/16 10:56:45;;;;;;;2.90;1.20;;;13.00;96.80;;;;;;5472185;26;20228;-60
2024/04/16 10:59:14;;;;;;;2.37;0.73;;;12.90;97.80;;;;;;5470019;26;20271;-60
2024/04/16 11:01:44;;;;;;;2.80;1.03;;;12.90;96.70;;;;;;5465707;26;20272;-61
2024/04/16 11:04:13;;;;;;;2.50;0.60;;;12.90;96.60;;;;;;5467703;26;20234;-62
2024/04/16 11:06:40;;;;;;;1.60;0.50;;;13.10;96.30;;;;;;5471576;26;20267;-62
2024/04/16 11:09:10;;;;;;;2.20;0.75;;;13.30;95.30;;;;;;5475858;26;20406;-60
2024/04/16 11:11:38;;;;;;;0.93;0.60;;;13.70;94.80;;;;;;5473105;26;20233;-61
2024/04/16 11:14:08;;;;;;;1.67;0.80;;;14.00;94.50;;;;;;5473494;26;20581;-60
2024/04/16 11:16:34;;;;;;;1.03;0.50;;;14.20;94.30;;;;;;5486468;26;20358;-61
2024/04/16 11:19:06;;;;;;;2.63;0.80;;;14.60;93.60;;;;;;5458209;26;20249;-61
2024/04/16 11:21:34;;;;;;;1.50;0.70;;;14.70;92.90;;;;;;5480709;26;20229;-61
2024/04/16 11:24:07;;;;;;;1.50;0.70;;;14.90;92.70;;;;;;5479493;26;20309;-62
2024/04/16 11:26:32;;;;;;;3.20;0.90;;;14.80;91.80;;;;;;5473142;26;20234;-61
2024/04/16 11:29:01;;;;;;;2.97;0.70;;;14.60;92.50;;;;;;5473397;26;20811;-61
2024/04/16 11:31:27;;;;;;;2.70;0.73;;;14.50;93.00;;;;;;5478137;26;20736;-61
2024/04/16 11:33:55;;;;;;;3.13;0.80;;;14.20;93.30;;;;;;5478709;26;20244;-62
2024/04/16 11:36:23;;;;;;;2.33;0.83;;;14.20;93.30;;;;;;5479268;26;20354;-61
2024/04/16 11:38:54;;;;;;;2.53;0.67;;;14.00;93.00;;;;;;5478266;26;20241;-62
2024/04/16 11:41:20;;;;;;;1.87;0.60;;;13.80;93.00;;;;;;5483164;26;20257;-61
2024/04/16 11:43:50;;;;;;;2.03;0.60;;;13.50;93.10;;;;;;5494712;26;20237;-62
2024/04/16 11:46:16;;;;;;;3.70;0.70;;;13.40;93.40;;;;;;5492030;26;20288;-60
2024/04/16 11:48:45;;;;;;;2.03;0.60;;;13.20;93.20;;;;;;5483116;26;20274;-62
2024/04/16 11:51:11;;;;;;;1.80;0.63;;;13.10;93.90;;;;;;5494163;26;20275;-61
2024/04/16 11:53:43;;;;;;;1.03;0.63;;;13.10;94.90;;;;;;5495036;26;20228;-62
2024/04/16 11:56:09;;;;;;;1.57;0.70;;;13.20;95.40;;;;;;5472114;26;20691;-61
2024/04/16 11:58:37;;;;;;;2.10;0.40;;;13.20;95.20;;;;;;5494115;26;20288;-62
2024/04/16 12:01:03;;;;;;;4.53;0.87;;;13.20;95.40;;;;;;5493513;26;20279;-63
2024/04/16 12:03:32;;;;;;;3.73;0.60;;;13.10;95.50;;;;;;5493954;26;20228;-65
2024/04/16 12:05:57;;;;;;;1.10;0.33;;;13.10;96.30;;;;;;5494376;26;20232;-61
2024/04/16 12:08:26;;;;;;;2.07;0.87;;;13.10;95.90;;;;;;5493621;26;20232;-65
2024/04/16 12:10:54;;;;;;;3.53;0.77;;;13.20;95.70;;;;;;5493564;26;20233;-60
2024/04/16 12:13:23;;;;;;;2.07;0.60;;;13.40;95.00;;;;;;5494201;26;20648;-62
2024/04/16 12:15:48;;;;;;;1.00;0.40;;;13.70;94.70;;;;;;5494010;26;20229;-62
2024/04/16 12:18:17;;;;;;;2.00;0.50;;;14.00;94.40;;;;;;5493570;21;20267;-65
2024/04/16 12:20:42;;;;;;;2.07;0.60;;;14.20;94.80;;;;;;5425948;26;20230;-64
2024/04/16 12:23:11;;;;;;;0.73;0.40;;;14.00;94.80;;;;;;5438416;26;20276;-65
2024/04/16 12:25:37;;;;;;;0.73;0.37;;;14.00;94.50;;;;;;5432444;26;20270;-65
2024/04/16 12:28:09;;;;;;;2.63;0.40;;;13.90;94.50;;;;;;5431645;26;20235;-67
2024/04/16 12:30:35;;;;;;;0.77;0.33;;;13.80;94.30;;;;;;5418040;26;20278;-69
2024/04/16 12:33:03;;;;;;;2.93;0.50;;;13.90;94.40;;;;;;5431672;26;20235;-67
2024/04/16 12:35:29;;;;;;;0.53;0.30;;;14.00;94.30;;;;;;5437773;26;20230;-66
2024/04/16 12:37:57;;;;;;;0.53;0.23;;;14.30;94.00;;;;;;5438310;26;20237;-67
2024/04/16 12:40:23;;;;;;;1.10;0.63;;;14.60;93.00;;;;;;5433123;26;20229;-66
2024/04/16 12:42:51;;;;;;;1.77;0.80;;;14.70;93.00;;;;;;5416908;26;20239;-68
2024/04/16 12:45:20;;;;;;;2.70;0.63;;;14.80;92.60;;;;;;5417489;26;20231;-65
2024/04/16 12:47:48;;;;;;;1.17;0.50;;;15.10;92.00;;;;;;5417608;26;20409;-65
2024/04/16 12:50:14;;;;;;;3.10;0.70;;;15.20;92.00;;;;;;5416956;26;20231;-66
2024/04/16 12:52:42;;;;;;;0.53;0.20;;;15.30;91.70;;;;;;5417217;26;20273;-63
2024/04/16 12:55:08;;;;;;;1.90;0.53;;;15.50;91.90;;;;;;5417203;26;20231;-64